createdAt,value
2018-05-04T00:01:02.981Z,79.37
2018-05-04T00:03:30.550Z,78.40
2018-05-04T00:05:58.131Z,81.67
2018-05-04T00:08:26.469Z,83.90
2018-05-04T00:10:54.059Z,80.53
2018-05-04T00:13:21.633Z,71.77
2018-05-04T00:15:49.268Z,69.73
2018-05-04T00:18:16.838Z,71.27
2018-05-04T00:20:44.440Z,64.97
2018-05-04T00:23:12.098Z,67.23
2018-05-04T00:25:39.659Z,78.03
2018-05-04T00:28:07.239Z,62.40
2018-05-04T00:30:34.811Z,73.73
2018-05-04T00:33:02.461Z,76.07
2018-05-04T00:35:30.046Z,70.00
2018-05-04T00:37:57.655Z,66.30
2018-05-04T00:40:25.218Z,62.40
2018-05-04T00:42:52.760Z,55.07
2018-05-04T00:45:21.055Z,47.80
2018-05-04T00:47:48.570Z,47.20
2018-05-04T00:50:16.105Z,42.97
2018-05-04T00:52:43.627Z,44.13
2018-05-04T00:55:11.902Z,44.07
2018-05-04T00:57:40.200Z,47.00
2018-05-04T01:00:07.719Z,52.70
2018-05-04T01:02:35.259Z,42.33
2018-05-04T01:05:02.774Z,44.77
2018-05-04T01:07:31.063Z,51.30
2018-05-04T01:09:59.353Z,50.80
2018-05-04T01:12:26.885Z,49.67
2018-05-04T01:14:54.412Z,50.60
2018-05-04T01:17:21.925Z,52.10
2018-05-04T01:19:50.213Z,51.03
2018-05-04T01:22:18.495Z,52.07
2018-05-04T01:24:46.803Z,58.60
2018-05-04T01:27:14.323Z,52.20
2018-05-04T01:29:41.844Z,52.43
2018-05-04T01:32:09.375Z,54.23
2018-05-04T01:34:37.660Z,54.43
2018-05-04T01:37:05.184Z,47.40
2018-05-04T01:39:32.723Z,51.57
2018-05-04T01:42:00.276Z,47.17
2018-05-04T01:44:27.780Z,57.90
2018-05-04T01:46:55.287Z,49.03
2018-05-04T01:49:22.815Z,46.80
2018-05-04T01:51:50.339Z,47.80
2018-05-04T01:54:17.858Z,47.07
2018-05-04T01:56:46.134Z,39.60
2018-05-04T01:59:14.436Z,39.17
2018-05-04T02:01:41.966Z,38.10
2018-05-04T02:04:09.518Z,38.73
2018-05-04T02:06:37.040Z,41.33
2018-05-04T02:09:05.467Z,36.60
2018-05-04T02:11:32.997Z,40.33
2018-05-04T02:14:00.507Z,41.87
2018-05-04T02:16:28.796Z,42.70
2018-05-04T02:18:57.077Z,43.40
2018-05-04T02:21:25.382Z,44.23
2018-05-04T02:23:52.901Z,47.57
2018-05-04T02:26:20.442Z,42.13
2018-05-04T02:28:47.969Z,45.30
2018-05-04T02:31:15.492Z,49.27
2018-05-04T02:33:43.017Z,46.00
2018-05-04T02:36:10.533Z,46.70
2018-05-04T02:38:38.843Z,43.90
2018-05-04T02:41:07.119Z,47.73
2018-05-04T02:43:34.653Z,48.83
2018-05-04T02:46:02.176Z,58.03
2018-05-04T02:48:29.728Z,48.47
2018-05-04T02:50:57.259Z,56.83
2018-05-04T02:53:25.539Z,46.93
2018-05-04T02:55:53.840Z,44.27
2018-05-04T02:58:21.358Z,50.93
2018-05-04T03:00:48.888Z,44.90
2018-05-04T03:03:16.480Z,37.40
2018-05-04T03:05:43.990Z,37.27
2018-05-04T03:08:12.265Z,40.53
2018-05-04T03:10:40.567Z,35.13
2018-05-04T03:13:08.084Z,33.83
2018-05-04T03:15:35.606Z,37.10
2018-05-04T03:18:03.125Z,35.23
2018-05-04T03:20:30.725Z,33.17
2018-05-04T03:22:58.259Z,34.93
2018-05-04T03:25:26.535Z,26.60
2018-05-04T03:27:54.831Z,31.57
2018-05-04T03:30:23.119Z,25.70
2018-05-04T03:32:51.398Z,24.93
2018-05-04T03:35:19.703Z,24.60
2018-05-04T03:37:47.217Z,34.80
2018-05-04T03:40:14.765Z,25.77
2018-05-04T03:42:42.285Z,25.93
2018-05-04T03:45:09.825Z,29.73
2018-05-04T03:47:38.106Z,31.10
2018-05-04T03:50:06.387Z,29.67
2018-05-04T03:52:34.691Z,31.83
2018-05-04T03:55:02.213Z,33.00
2018-05-04T03:57:41.626Z,29.57
2018-05-04T04:00:21.080Z,27.23
2018-05-04T04:03:01.255Z,31.30
2018-05-04T04:05:30.049Z,28.67
2018-05-04T04:07:58.372Z,31.83
2018-05-04T04:10:25.905Z,32.07
2018-05-04T04:12:53.425Z,32.83
2018-05-04T04:15:20.954Z,30.30
2018-05-04T04:17:48.474Z,27.17
2018-05-04T04:20:16.786Z,30.73
2018-05-04T04:22:44.306Z,30.27
2018-05-04T04:25:11.861Z,31.17
2018-05-04T04:27:40.995Z,30.27
2018-05-04T04:30:09.306Z,33.87
2018-05-04T04:32:36.817Z,33.87
2018-05-04T04:35:04.347Z,27.00
2018-05-04T04:37:31.879Z,29.63
2018-05-04T04:39:59.423Z,37.83
2018-05-04T04:42:27.729Z,26.67
2018-05-04T04:44:55.259Z,31.80
2018-05-04T04:47:22.813Z,33.40
2018-05-04T04:49:50.331Z,30.03
2018-05-04T04:52:17.844Z,26.63
2018-05-04T04:54:45.364Z,26.90
2018-05-04T04:57:12.887Z,29.83
2018-05-04T04:59:40.407Z,27.37
2018-05-04T05:02:07.924Z,30.83
2018-05-04T05:04:36.231Z,30.03
2018-05-04T05:07:03.744Z,26.67
2018-05-04T05:09:31.247Z,27.80
2018-05-04T05:11:58.779Z,31.30
2018-05-04T05:14:26.296Z,24.97
2018-05-04T05:16:53.818Z,30.20
2018-05-04T05:19:22.097Z,26.37
2018-05-04T05:21:50.410Z,31.13
2018-05-04T05:24:17.930Z,26.40
2018-05-04T05:26:45.502Z,29.73
2018-05-04T05:29:13.014Z,25.70
2018-05-04T05:31:40.529Z,32.23
2018-05-04T05:34:08.847Z,28.20
2018-05-04T05:36:36.359Z,30.70
2018-05-04T05:39:03.896Z,33.93
2018-05-04T05:41:31.414Z,29.83
2018-05-04T05:43:59.732Z,36.60
2018-05-04T05:46:27.236Z,38.70
2018-05-04T05:48:54.761Z,41.10
2018-05-04T05:51:22.288Z,33.97
2018-05-04T05:53:50.575Z,39.10
2018-05-04T05:56:18.859Z,39.63
2018-05-04T05:58:46.379Z,43.03
2018-05-04T06:01:13.931Z,43.77
2018-05-04T06:03:41.456Z,36.47
2018-05-04T06:06:08.974Z,44.20
2018-05-04T06:08:37.283Z,41.77
2018-05-04T06:11:05.581Z,35.10
2018-05-04T06:13:33.109Z,35.70
2018-05-04T06:16:01.401Z,34.50
2018-05-04T06:18:28.936Z,36.00
2018-05-04T06:20:56.482Z,39.07
2018-05-04T06:23:23.996Z,31.73
2018-05-04T06:25:51.554Z,34.50
2018-05-04T06:28:19.920Z,45.00
2018-05-04T06:30:47.401Z,35.27
2018-05-04T06:33:14.910Z,39.93
2018-05-04T06:35:42.447Z,42.80
2018-05-04T06:38:10.734Z,36.73
2018-05-04T06:40:38.260Z,39.83
2018-05-04T06:43:05.788Z,40.43
2018-05-04T06:45:33.310Z,40.30
2018-05-04T06:48:01.618Z,39.97
2018-05-04T06:50:29.142Z,47.43
2018-05-04T06:52:56.699Z,46.70
2018-05-04T06:55:24.225Z,41.60
2018-05-04T06:57:51.756Z,41.40
2018-05-04T07:00:20.051Z,42.30
2018-05-04T07:02:47.562Z,44.30
2018-05-04T07:05:15.097Z,43.93
2018-05-04T07:07:42.618Z,38.37
2018-05-04T07:10:10.903Z,33.43
2018-05-04T07:12:39.183Z,39.73
2018-05-04T07:15:07.527Z,32.03
2018-05-04T07:17:35.048Z,37.67
2018-05-04T07:20:02.582Z,41.40
2018-05-04T07:22:30.880Z,34.97
2018-05-04T07:24:59.167Z,39.23
2018-05-04T07:27:26.706Z,43.57
2018-05-04T07:29:54.981Z,40.20
2018-05-04T07:32:22.524Z,41.73
2018-05-04T07:34:50.031Z,41.03
2018-05-04T07:37:18.310Z,41.60
2018-05-04T07:39:46.620Z,40.13
2018-05-04T07:42:14.151Z,39.97
2018-05-04T07:44:42.452Z,44.47
2018-05-04T07:47:09.974Z,42.30
2018-05-04T07:49:37.506Z,45.00
2018-05-04T07:52:05.040Z,50.50
2018-05-04T07:54:32.563Z,45.43
2018-05-04T07:57:00.078Z,41.43
2018-05-04T07:59:27.588Z,42.77
2018-05-04T08:01:55.140Z,47.60
2018-05-04T08:04:22.679Z,49.20
2018-05-04T08:06:50.221Z,49.90
2018-05-04T08:09:17.735Z,50.10
2018-05-04T08:11:45.264Z,48.97
2018-05-04T08:14:12.773Z,51.77
2018-05-04T08:16:40.328Z,54.73
2018-05-04T08:19:07.851Z,50.60
2018-05-04T08:21:35.380Z,46.57
2018-05-04T08:24:03.672Z,54.00
2018-05-04T08:26:31.945Z,60.10
2018-05-04T08:29:00.231Z,56.13
2018-05-04T08:31:28.508Z,54.60
2018-05-04T08:33:56.827Z,61.20
2018-05-04T08:36:24.356Z,53.27
2018-05-04T08:38:52.634Z,50.83
2018-05-04T08:41:20.931Z,54.93
2018-05-04T08:43:48.466Z,54.97
2018-05-04T08:46:16.000Z,82.33
2018-05-04T08:48:43.528Z,67.50
2018-05-04T08:51:11.106Z,69.17
2018-05-04T08:53:39.351Z,57.30
2018-05-04T08:56:07.690Z,56.87
2018-05-04T08:58:35.211Z,51.20
2018-05-04T09:01:03.492Z,55.63
2018-05-04T09:03:31.784Z,54.03
2018-05-04T09:05:59.306Z,50.23
2018-05-04T09:08:26.837Z,50.17
2018-05-04T09:10:54.359Z,54.20
2018-05-04T09:13:22.703Z,57.27
2018-05-04T09:15:50.213Z,54.50
2018-05-04T09:18:18.509Z,53.10
2018-05-04T09:20:46.074Z,56.77
2018-05-04T09:23:13.590Z,54.83
2018-05-04T09:25:41.145Z,46.10
2018-05-04T09:28:09.425Z,51.93
2018-05-04T09:30:36.992Z,56.23
2018-05-04T09:33:04.615Z,48.17
2018-05-04T09:35:32.135Z,43.63
2018-05-04T09:37:59.680Z,55.33
2018-05-04T09:40:27.198Z,46.00
2018-05-04T09:42:54.736Z,46.97
2018-05-04T09:45:23.032Z,47.67
2018-05-04T09:47:51.332Z,44.60
2018-05-04T09:50:18.846Z,56.50
2018-05-04T09:52:46.375Z,48.60
2018-05-04T09:55:13.896Z,47.73
2018-05-04T09:57:42.210Z,45.70
2018-05-04T10:00:09.720Z,45.43
2018-05-04T10:02:37.251Z,46.83
2018-05-04T10:05:04.787Z,44.00
2018-05-04T10:07:32.304Z,47.80
2018-05-04T10:09:59.840Z,43.03
2018-05-04T10:12:27.376Z,49.53
2018-05-04T10:14:55.679Z,49.47
2018-05-04T10:17:23.216Z,47.23
2018-05-04T10:19:51.490Z,45.73
2018-05-04T10:22:19.786Z,49.63
2018-05-04T10:24:47.316Z,50.20
2018-05-04T10:27:14.854Z,47.67
2018-05-04T10:29:42.373Z,47.37
2018-05-04T10:32:09.911Z,51.47
2018-05-04T10:34:37.445Z,54.73
2018-05-04T10:37:04.992Z,46.27
2018-05-04T10:39:32.521Z,49.80
2018-05-04T10:42:00.833Z,55.07
2018-05-04T10:44:28.361Z,52.83
2018-05-04T10:46:56.654Z,49.20
2018-05-04T10:49:24.199Z,48.50
2018-05-04T10:51:52.506Z,50.10
2018-05-04T10:54:20.053Z,41.80
2018-05-04T10:56:48.359Z,43.40
2018-05-04T10:59:15.908Z,49.73
2018-05-04T11:01:44.209Z,45.20
2018-05-04T11:04:11.729Z,40.40
2018-05-04T11:06:39.243Z,43.87
2018-05-04T11:09:06.780Z,44.47
2018-05-04T11:11:35.068Z,42.20
2018-05-04T11:14:02.609Z,40.93
2018-05-04T11:16:30.918Z,43.80
2018-05-04T11:18:58.463Z,37.03
2018-05-04T11:21:26.746Z,44.50
2018-05-04T11:23:55.056Z,39.93
2018-05-04T11:26:22.603Z,47.70
2018-05-04T11:28:50.136Z,43.43
2018-05-04T11:31:17.674Z,44.43
2018-05-04T11:33:45.185Z,51.63
2018-05-04T11:36:13.495Z,38.37
2018-05-04T11:38:41.021Z,41.53
2018-05-04T11:41:09.292Z,42.30
2018-05-04T11:43:36.824Z,43.57
2018-05-04T11:46:04.358Z,46.70
2018-05-04T11:48:31.900Z,40.83
2018-05-04T11:51:00.184Z,38.37
2018-05-04T11:53:28.484Z,35.63
2018-05-04T11:55:56.006Z,43.63
2018-05-04T11:58:23.526Z,39.63
2018-05-04T12:00:51.066Z,40.30
2018-05-04T12:03:19.376Z,40.80
2018-05-04T12:05:46.932Z,36.80
2018-05-04T12:08:14.445Z,37.33
2018-05-04T12:10:42.843Z,44.40
2018-05-04T12:13:10.300Z,38.17
2018-05-04T12:15:38.593Z,44.23
2018-05-04T12:18:06.155Z,41.90
2018-05-04T12:20:34.433Z,43.23
2018-05-04T12:23:02.745Z,37.50
2018-05-04T12:25:30.289Z,39.57
2018-05-04T12:27:57.839Z,42.37
2018-05-04T12:30:26.142Z,40.90
2018-05-04T12:32:53.677Z,41.50
2018-05-04T12:35:21.978Z,38.03
2018-05-04T12:37:50.269Z,42.50
2018-05-04T12:40:17.816Z,40.80
2018-05-04T12:42:46.103Z,45.43
2018-05-04T12:45:14.406Z,39.77
2018-05-04T12:47:41.936Z,36.27
2018-05-04T12:50:10.232Z,44.90
2018-05-04T12:52:37.781Z,42.90
2018-05-04T12:55:06.075Z,44.23
2018-05-04T12:57:34.352Z,38.83
2018-05-04T13:00:02.660Z,40.97
2018-05-04T13:02:30.187Z,40.97
2018-05-04T13:04:58.497Z,39.40
2018-05-04T13:07:26.028Z,42.20
2018-05-04T13:09:54.330Z,41.30
2018-05-04T13:12:22.673Z,39.83
2018-05-04T13:14:51.013Z,40.83
2018-05-04T13:17:18.608Z,41.13
2018-05-04T13:19:46.159Z,51.90
2018-05-04T13:22:13.725Z,43.43
2018-05-04T13:24:41.251Z,41.77
2018-05-04T13:27:09.535Z,40.93
2018-05-04T13:29:37.857Z,37.27
2018-05-04T13:32:05.375Z,35.70
2018-05-04T13:34:33.668Z,44.67
2018-05-04T13:37:01.202Z,40.23
2018-05-04T13:39:28.738Z,42.93
2018-05-04T13:41:56.295Z,38.10
2018-05-04T13:44:23.968Z,42.43
2018-05-04T13:46:51.486Z,39.67
2018-05-04T13:49:18.991Z,39.30
2018-05-04T13:51:46.538Z,41.20
2018-05-04T13:54:14.074Z,39.47
2018-05-04T13:56:42.368Z,45.30
2018-05-04T13:59:09.914Z,40.63
2018-05-04T14:01:38.219Z,40.73
2018-05-04T14:04:05.792Z,44.60
2018-05-04T14:06:33.322Z,47.43
2018-05-04T14:09:01.612Z,41.03
2018-05-04T14:11:29.910Z,45.23
2018-05-04T14:13:57.432Z,38.60
2018-05-04T14:16:24.992Z,38.30
2018-05-04T14:18:52.531Z,42.33
2018-05-04T14:21:20.057Z,43.77
2018-05-04T14:23:47.585Z,36.27
2018-05-04T14:26:15.107Z,50.90
2018-05-04T14:28:42.632Z,37.60
2018-05-04T14:31:10.942Z,35.73
2018-05-04T14:33:38.481Z,36.77
2018-05-04T14:36:06.778Z,34.20
2018-05-04T14:38:34.323Z,37.70
2018-05-04T14:41:02.632Z,33.07
2018-05-04T14:43:30.174Z,38.40
2018-05-04T14:45:57.729Z,36.13
2018-05-04T14:48:26.048Z,32.33
2018-05-04T14:50:53.617Z,45.33
2018-05-04T14:53:21.133Z,39.23
2018-05-04T14:55:49.461Z,38.67
2018-05-04T14:58:17.004Z,40.53
2018-05-04T15:00:44.521Z,33.20
2018-05-04T15:03:12.064Z,33.83
2018-05-04T15:05:39.593Z,36.50
2018-05-04T15:08:07.174Z,42.00
2018-05-04T15:10:34.728Z,35.93
2018-05-04T15:13:02.296Z,38.33
2018-05-04T15:15:29.834Z,35.73
2018-05-04T15:17:58.215Z,37.00
2018-05-04T15:20:25.732Z,38.80
2018-05-04T15:22:53.305Z,39.47
2018-05-04T15:25:20.942Z,35.97
2018-05-04T15:27:48.495Z,38.00
2018-05-04T15:30:16.033Z,37.33
2018-05-04T15:32:44.395Z,38.80
2018-05-04T15:35:11.984Z,33.30
2018-05-04T15:37:40.330Z,35.40
2018-05-04T15:40:07.906Z,33.83
2018-05-04T15:42:35.450Z,41.80
2018-05-04T15:45:02.987Z,39.17
2018-05-04T15:47:30.513Z,37.17
2018-05-04T15:49:58.935Z,38.43
2018-05-04T15:52:26.461Z,37.93
2018-05-04T15:54:54.013Z,34.17
2018-05-04T15:57:22.306Z,34.70
2018-05-04T15:59:49.872Z,37.37
2018-05-04T16:02:18.203Z,34.50
2018-05-04T16:04:45.737Z,36.30
2018-05-04T16:07:13.270Z,33.40
2018-05-04T16:09:40.881Z,31.00
2018-05-04T16:12:08.424Z,38.00
2018-05-04T16:14:36.750Z,36.77
2018-05-04T16:17:04.303Z,32.10
2018-05-04T16:19:31.844Z,37.23
2018-05-04T16:22:00.173Z,31.97
2018-05-04T16:24:27.714Z,37.07
2018-05-04T16:26:55.273Z,32.47
2018-05-04T16:29:22.830Z,32.40
2018-05-04T16:31:50.352Z,32.47
2018-05-04T16:34:17.946Z,38.97
2018-05-04T16:36:46.265Z,42.20
2018-05-04T16:39:13.804Z,35.13
2018-05-04T16:41:41.401Z,33.17
2018-05-04T16:44:08.933Z,36.67
2018-05-04T16:46:42.097Z,38.10
2018-05-04T16:49:15.275Z,38.23
2018-05-04T16:51:42.793Z,34.13
2018-05-04T16:54:10.328Z,36.13
2018-05-04T16:56:38.617Z,36.03
2018-05-04T16:59:06.159Z,35.37
2018-05-04T17:01:34.486Z,38.70
2018-05-04T17:04:02.022Z,36.00
2018-05-04T17:06:30.331Z,38.83
2018-05-04T17:08:57.967Z,32.23
2018-05-04T17:11:25.470Z,34.23
2018-05-04T17:13:52.998Z,37.10
2018-05-04T17:16:21.355Z,34.97
2018-05-04T17:18:48.898Z,32.77
2018-05-04T17:21:16.426Z,34.97
2018-05-04T17:23:43.966Z,33.07
2018-05-04T17:26:12.259Z,37.57
2018-05-04T17:28:40.597Z,31.40
2018-05-04T17:31:08.118Z,36.57
2018-05-04T17:33:35.661Z,39.13
2018-05-04T17:36:03.968Z,36.23
2018-05-04T17:38:31.495Z,40.07
2018-05-04T17:40:59.802Z,34.40
2018-05-04T17:43:27.336Z,32.23
2018-05-04T17:45:54.873Z,38.93
2018-05-04T17:48:22.427Z,31.60
2018-05-04T17:50:49.970Z,37.40
2018-05-04T17:53:17.505Z,33.73
2018-05-04T17:55:45.799Z,32.50
2018-05-04T17:58:13.345Z,33.80
2018-05-04T18:00:41.638Z,32.23
2018-05-04T18:03:10.020Z,37.70
2018-05-04T18:05:37.562Z,31.70
2018-05-04T18:08:05.119Z,33.63
2018-05-04T18:10:32.700Z,37.97
2018-05-04T18:13:01.036Z,36.87
2018-05-04T18:15:28.593Z,38.20
2018-05-04T18:17:56.246Z,36.20
2018-05-04T18:20:23.828Z,33.83
2018-05-04T18:22:51.373Z,36.40
2018-05-04T18:25:18.946Z,33.57
2018-05-04T18:27:46.514Z,29.53
2018-05-04T18:30:14.072Z,35.73
2018-05-04T18:32:41.740Z,29.83
2018-05-04T18:35:09.403Z,36.47
2018-05-04T18:37:37.012Z,35.20
2018-05-04T18:40:04.736Z,31.73
2018-05-04T18:42:32.324Z,35.33
2018-05-04T18:45:00.512Z,31.80
2018-05-04T18:47:28.890Z,37.83
2018-05-04T18:49:56.473Z,36.97
2018-05-04T18:52:24.203Z,37.67
2018-05-04T18:54:51.795Z,34.37
2018-05-04T18:57:19.385Z,38.67
2018-05-04T18:59:46.980Z,48.10
2018-05-04T19:02:20.311Z,37.37
2018-05-04T19:04:47.874Z,37.83
2018-05-04T19:07:15.835Z,35.40
2018-05-04T19:09:43.445Z,35.90
2018-05-04T19:12:11.113Z,35.10
2018-05-04T19:14:39.534Z,37.03
2018-05-04T19:17:07.206Z,36.20
2018-05-04T19:19:34.862Z,36.97
2018-05-04T19:22:02.461Z,37.17
2018-05-04T19:24:30.042Z,32.47
2018-05-04T19:26:57.688Z,36.07
2018-05-04T19:29:25.321Z,42.97
2018-05-04T19:31:52.947Z,44.50
2018-05-04T19:34:21.307Z,39.63
2018-05-04T19:36:48.921Z,43.17
2018-05-04T19:39:17.665Z,37.13
2018-05-04T19:41:45.248Z,36.30
2018-05-04T19:44:12.840Z,37.30
2018-05-04T19:46:41.264Z,38.23
2018-05-04T19:49:08.876Z,35.20
2018-05-04T19:51:36.466Z,37.87
2018-05-04T19:54:04.838Z,34.40
2018-05-04T19:56:33.223Z,37.90
2018-05-04T19:59:01.618Z,39.80
2018-05-04T20:01:29.236Z,38.17
2018-05-04T20:03:56.831Z,34.67
2018-05-04T20:06:25.199Z,36.73
2018-05-04T20:08:52.810Z,48.60
2018-05-04T20:11:20.496Z,36.00
2018-05-04T20:13:48.154Z,35.93
2018-05-04T20:16:15.689Z,35.77
2018-05-04T20:18:44.205Z,38.20
2018-05-04T20:21:11.858Z,38.23
2018-05-04T20:23:39.419Z,38.53
2018-05-04T20:26:06.982Z,34.23
2018-05-04T20:28:35.384Z,44.93
2018-05-04T20:31:03.003Z,36.13
2018-05-04T20:33:30.724Z,37.93
2018-05-04T20:35:58.330Z,40.10
2018-05-04T20:38:26.706Z,35.80
2018-05-04T20:40:54.305Z,34.37
2018-05-04T20:43:22.723Z,41.13
2018-05-04T20:45:50.310Z,43.13
2018-05-04T20:48:17.949Z,39.10
2018-05-04T20:50:45.546Z,32.20
2018-05-04T20:53:13.184Z,33.90
2018-05-04T20:55:40.747Z,37.63
2018-05-04T20:58:08.349Z,35.37
2018-05-04T21:00:36.613Z,41.10
2018-05-04T21:03:04.181Z,38.57
2018-05-04T21:05:31.752Z,42.87
2018-05-04T21:07:59.289Z,36.60
2018-05-04T21:10:27.787Z,35.50
2018-05-04T21:12:55.373Z,48.73
2018-05-04T21:15:23.215Z,39.60
2018-05-04T21:17:50.746Z,40.13
2018-05-04T21:20:19.057Z,39.10
2018-05-04T21:22:46.627Z,41.33
2018-05-04T21:25:14.163Z,37.03
2018-05-04T21:27:42.520Z,39.93
2018-05-04T21:30:10.808Z,44.27
2018-05-04T21:32:39.103Z,45.90
2018-05-04T21:35:07.403Z,44.97
2018-05-04T21:37:34.956Z,39.90
2018-05-04T21:40:02.497Z,44.97
2018-05-04T21:42:30.776Z,43.53
2018-05-04T21:44:58.378Z,45.07
2018-05-04T21:47:25.928Z,42.63
2018-05-04T21:49:54.209Z,46.50
2018-05-04T21:52:22.531Z,43.97
2018-05-04T21:54:50.065Z,50.43
2018-05-04T21:57:17.605Z,48.67
2018-05-04T21:59:45.889Z,54.37
2018-05-04T22:02:14.214Z,49.60
2018-05-04T22:04:41.776Z,50.33
2018-05-04T22:07:10.034Z,57.07
2018-05-04T22:09:37.606Z,49.47
2018-05-04T22:12:05.121Z,52.37
2018-05-04T22:14:33.437Z,48.60
2018-05-04T22:17:01.724Z,50.43
2018-05-04T22:19:29.298Z,45.87
2018-05-04T22:21:56.861Z,50.23
2018-05-04T22:24:24.376Z,43.83
2018-05-04T22:26:51.906Z,40.87
2018-05-04T22:29:19.453Z,48.83
2018-05-04T22:31:46.998Z,45.80
2018-05-04T22:34:15.272Z,38.70
2018-05-04T22:36:43.547Z,46.50
2018-05-04T22:39:11.848Z,44.33
2018-05-04T22:41:39.374Z,45.67
2018-05-04T22:44:06.909Z,43.07
2018-05-04T22:46:34.419Z,40.53
2018-05-04T22:49:01.955Z,47.20
2018-05-04T22:51:29.477Z,46.50
2018-05-04T22:53:56.991Z,41.53
2018-05-04T22:56:24.536Z,50.40
2018-05-04T22:58:52.050Z,50.10
2018-05-04T23:01:20.357Z,42.27
2018-05-04T23:03:47.869Z,40.63
2018-05-04T23:06:15.402Z,40.97
2018-05-04T23:08:42.925Z,50.33
2018-05-04T23:11:11.219Z,39.03
2018-05-04T23:13:38.746Z,45.60
2018-05-04T23:16:06.272Z,48.73
2018-05-04T23:18:33.795Z,43.47
2018-05-04T23:21:02.128Z,41.07
2018-05-04T23:23:29.636Z,44.83
2018-05-04T23:25:57.908Z,42.83
2018-05-04T23:28:26.192Z,43.00
2018-05-04T23:30:54.470Z,42.40
2018-05-04T23:33:22.025Z,41.00
2018-05-04T23:35:49.543Z,38.93
2018-05-04T23:38:17.096Z,39.33
2018-05-04T23:40:44.622Z,34.43
2018-05-04T23:43:12.144Z,40.13
2018-05-04T23:45:39.682Z,39.10
2018-05-04T23:48:07.208Z,41.80
2018-05-04T23:50:34.727Z,40.43
2018-05-04T23:53:02.276Z,44.23
2018-05-04T23:55:29.792Z,36.97
2018-05-04T23:57:57.336Z,43.33
